createdAt,value
2023-02-18T00:01:00.054Z,97534.55
2023-02-18T00:03:34.298Z,97537.02
2023-02-18T00:06:15.948Z,97536.70
2023-02-18T00:08:51.743Z,97534.59
2023-02-18T00:11:27.410Z,97525.31
2023-02-18T00:14:02.366Z,97529.08
2023-02-18T00:16:36.672Z,97525.56
2023-02-18T00:19:12.951Z,97530.36
2023-02-18T00:21:47.154Z,97531.58
2023-02-18T00:24:21.011Z,97523.16
2023-02-18T00:26:56.302Z,97524.70
2023-02-18T00:29:29.946Z,97523.66
2023-02-18T00:32:03.671Z,97520.33
2023-02-18T00:34:37.564Z,97521.68
2023-02-18T00:37:11.166Z,97523.92
2023-02-18T00:39:45.561Z,97524.46
2023-02-18T00:42:19.371Z,97528.02
2023-02-18T00:44:53.211Z,97528.46
2023-02-18T00:47:27.495Z,97529.81
2023-02-18T00:50:01.543Z,97533.15
2023-02-18T00:52:35.226Z,97530.59
2023-02-18T00:55:11.595Z,97525.86
2023-02-18T00:57:45.178Z,97523.81
2023-02-18T01:00:20.735Z,97521.99
2023-02-18T01:02:55.360Z,97520.11
2023-02-18T01:05:29.307Z,97520.60
2023-02-18T01:08:11.747Z,97520.31
2023-02-18T01:10:47.805Z,97520.58
2023-02-18T01:13:21.456Z,97518.16
2023-02-18T01:15:55.361Z,97521.27
2023-02-18T01:18:29.425Z,97524.74
2023-02-18T01:21:03.916Z,97519.88
2023-02-18T01:23:40.902Z,97515.98
2023-02-18T01:26:16.201Z,97514.58
2023-02-18T01:28:50.001Z,97514.48
2023-02-18T01:31:23.785Z,97513.95
2023-02-18T01:33:58.654Z,97515.90
2023-02-18T01:36:32.795Z,97511.40
2023-02-18T01:39:06.806Z,97509.12
2023-02-18T01:41:41.866Z,97509.45
2023-02-18T01:44:20.907Z,97511.57
2023-02-18T01:46:55.577Z,97502.41
2023-02-18T01:49:31.114Z,97497.66
2023-02-18T01:52:07.697Z,97490.35
2023-02-18T01:54:44.410Z,97491.70
2023-02-18T01:57:19.564Z,97491.83
2023-02-18T01:59:59.030Z,97492.20
2023-02-18T02:02:34.851Z,97491.13
2023-02-18T02:05:09.742Z,97493.27
2023-02-18T02:07:45.356Z,97498.40
2023-02-18T02:10:20.771Z,97497.34
2023-02-18T02:13:02.558Z,97491.61
2023-02-18T02:15:43.459Z,97491.58
2023-02-18T02:18:26.912Z,97498.89
2023-02-18T02:21:29.864Z,97499.17
2023-02-18T02:24:18.253Z,97503.06
2023-02-18T02:27:10.200Z,97507.99
2023-02-18T02:30:08.264Z,97507.71
2023-02-18T02:32:50.000Z,97507.95
2023-02-18T02:35:27.322Z,97506.76
2023-02-18T02:38:05.296Z,97505.91
2023-02-18T02:40:45.160Z,97502.78
2023-02-18T02:43:23.651Z,97493.75
2023-02-18T02:46:00.600Z,97492.61
2023-02-18T02:48:38.530Z,97490.77
2023-02-18T02:51:15.613Z,97490.11
2023-02-18T02:53:47.189Z,97493.65
2023-02-18T02:56:22.397Z,97493.85
2023-02-18T02:59:00.146Z,97494.30
2023-02-18T03:01:42.330Z,97495.45
2023-02-18T03:04:27.903Z,97501.33
2023-02-18T03:07:13.957Z,97499.47
2023-02-18T03:09:57.708Z,97499.66
2023-02-18T03:12:38.033Z,97497.05
2023-02-18T03:15:16.645Z,97497.42
2023-02-18T03:17:58.966Z,97499.53
2023-02-18T03:20:36.666Z,97501.65
2023-02-18T03:23:13.367Z,97499.21
2023-02-18T03:25:48.663Z,97503.16
2023-02-18T03:28:24.927Z,97502.71
2023-02-18T03:31:00.758Z,97503.75
2023-02-18T03:33:38.218Z,97505.05
2023-02-18T03:36:14.174Z,97505.02
2023-02-18T03:38:56.309Z,97506.02
2023-02-18T03:41:31.499Z,97504.47
2023-02-18T03:44:06.869Z,97503.85
2023-02-18T03:46:43.502Z,97502.46
2023-02-18T03:49:19.706Z,97505.95
2023-02-18T03:51:53.870Z,97505.92
2023-02-18T03:54:27.587Z,97499.48
2023-02-18T03:57:01.340Z,97503.17
2023-02-18T03:59:35.550Z,97505.28
2023-02-18T04:02:09.233Z,97504.77
2023-02-18T04:04:43.112Z,97506.90
2023-02-18T04:07:19.136Z,97507.98
2023-02-18T04:09:53.296Z,97503.36
2023-02-18T04:12:27.220Z,97503.19
2023-02-18T04:15:00.845Z,97505.90
2023-02-18T04:17:36.146Z,97506.36
2023-02-18T04:20:13.446Z,97505.60
2023-02-18T04:22:47.561Z,97500.82
2023-02-18T04:25:21.630Z,97499.09
2023-02-18T04:27:55.359Z,97503.80
2023-02-18T04:30:29.552Z,97508.08
2023-02-18T04:33:03.429Z,97506.90
2023-02-18T04:35:37.294Z,97505.55
2023-02-18T04:38:11.647Z,97508.08
2023-02-18T04:40:45.705Z,97509.40
2023-02-18T04:43:19.878Z,97511.88
2023-02-18T04:45:55.468Z,97511.27
2023-02-18T04:48:29.095Z,97509.02
2023-02-18T04:51:03.980Z,97511.58
2023-02-18T04:53:38.592Z,97513.44
2023-02-18T04:56:12.208Z,97515.06
2023-02-18T04:58:45.695Z,97514.46
2023-02-18T05:01:19.747Z,97508.58
2023-02-18T05:03:53.791Z,97505.21
2023-02-18T05:06:27.442Z,97507.19
2023-02-18T05:09:02.211Z,97508.83
2023-02-18T05:11:38.309Z,97511.11
2023-02-18T05:14:14.195Z,97509.82
2023-02-18T05:16:47.912Z,97510.92
2023-02-18T05:19:21.540Z,97509.04
2023-02-18T05:21:55.049Z,97510.35
2023-02-18T05:24:29.167Z,97506.59
2023-02-18T05:27:03.062Z,97506.23
2023-02-18T05:29:36.829Z,97509.77
2023-02-18T05:32:11.796Z,97514.38
2023-02-18T05:34:45.873Z,97516.40
2023-02-18T05:37:20.920Z,97513.79
2023-02-18T05:39:55.810Z,97513.05
2023-02-18T05:42:29.752Z,97509.34
2023-02-18T05:45:04.501Z,97513.48
2023-02-18T05:47:38.183Z,97511.74
2023-02-18T05:50:14.614Z,97511.15
2023-02-18T05:52:50.376Z,97515.79
2023-02-18T05:55:25.086Z,97513.02
2023-02-18T05:58:02.274Z,97513.50
2023-02-18T06:00:36.780Z,97509.51
2023-02-18T06:03:13.221Z,97505.21
2023-02-18T06:05:48.351Z,97500.35
2023-02-18T06:08:24.131Z,97497.79
2023-02-18T06:10:58.973Z,97492.75
2023-02-18T06:13:34.858Z,97498.48
2023-02-18T06:16:09.952Z,97493.08
2023-02-18T06:18:44.032Z,97484.50
2023-02-18T06:21:17.608Z,97489.13
2023-02-18T06:23:51.408Z,97492.83
2023-02-18T06:26:25.499Z,97491.03
2023-02-18T06:29:02.081Z,97490.90
2023-02-18T06:31:36.612Z,97484.29
2023-02-18T06:34:10.718Z,97487.39
2023-02-18T06:36:44.681Z,97486.27
2023-02-18T06:39:18.879Z,97480.55
2023-02-18T06:41:52.367Z,97476.14
2023-02-18T06:44:27.111Z,97472.52
2023-02-18T06:47:01.449Z,97471.61
2023-02-18T06:49:37.041Z,97471.33
2023-02-18T06:52:11.054Z,97462.38
2023-02-18T06:54:44.834Z,97462.35
2023-02-18T06:57:18.623Z,97451.16
2023-02-18T06:59:52.758Z,97450.33
2023-02-18T07:02:29.684Z,97443.40
2023-02-18T07:05:04.180Z,97441.18
2023-02-18T07:07:37.782Z,97444.88
2023-02-18T07:10:13.684Z,97431.42
2023-02-18T07:12:48.353Z,97429.63
2023-02-18T07:15:25.737Z,97429.46
2023-02-18T07:17:59.296Z,97434.29
2023-02-18T07:20:34.283Z,97429.19
2023-02-18T07:23:09.475Z,97424.75
2023-02-18T07:25:43.751Z,97421.09
2023-02-18T07:28:17.990Z,97415.98
2023-02-18T07:30:51.583Z,97416.59
2023-02-18T07:33:25.430Z,97416.20
2023-02-18T07:36:01.410Z,97409.08
2023-02-18T07:38:42.926Z,97406.55
2023-02-18T07:41:25.117Z,97402.67
2023-02-18T07:44:01.082Z,97399.92
2023-02-18T07:46:34.773Z,97393.31
2023-02-18T07:49:08.457Z,97395.22
2023-02-18T07:51:42.029Z,97388.98
2023-02-18T07:54:16.138Z,97394.89
2023-02-18T07:56:51.441Z,97393.45
2023-02-18T07:59:27.268Z,97393.05
2023-02-18T08:02:00.917Z,97390.55
2023-02-18T08:04:34.902Z,97384.65
2023-02-18T08:07:10.342Z,97384.13
2023-02-18T08:09:46.070Z,97381.69
2023-02-18T08:12:22.159Z,97381.64
2023-02-18T08:14:56.161Z,97378.09
2023-02-18T08:17:31.780Z,97375.17
2023-02-18T08:20:06.237Z,97369.52
2023-02-18T08:22:41.484Z,97365.91
2023-02-18T08:25:27.659Z,97360.00
2023-02-18T08:28:04.735Z,97356.09
2023-02-18T08:30:38.428Z,97358.52
2023-02-18T08:33:12.118Z,97357.25
2023-02-18T08:35:48.480Z,97358.67
2023-02-18T08:38:22.108Z,97356.00
2023-02-18T08:41:01.372Z,97351.48
2023-02-18T08:43:35.748Z,97341.52
2023-02-18T08:46:15.668Z,97337.15
2023-02-18T08:48:50.367Z,97329.21
2023-02-18T08:51:28.828Z,97325.13
2023-02-18T08:54:02.577Z,97312.27
2023-02-18T08:56:36.853Z,97302.56
2023-02-18T08:59:11.597Z,97298.50
2023-02-18T09:01:45.268Z,97293.44
2023-02-18T09:04:19.075Z,97291.85
2023-02-18T09:06:52.946Z,97287.59
2023-02-18T09:09:26.755Z,97283.17
2023-02-18T09:12:00.953Z,97278.50
2023-02-18T09:14:34.770Z,97274.55
2023-02-18T09:17:08.361Z,97271.75
2023-02-18T09:19:42.081Z,97265.84
2023-02-18T09:22:16.187Z,97260.42
2023-02-18T09:24:50.068Z,97250.82
2023-02-18T09:27:24.325Z,97243.92
2023-02-18T09:29:58.081Z,97239.02
2023-02-18T09:32:35.173Z,97232.54
2023-02-18T09:35:10.347Z,97227.27
2023-02-18T09:37:44.090Z,97224.05
2023-02-18T09:40:28.709Z,97219.31
2023-02-18T09:43:03.002Z,97214.20
2023-02-18T09:45:37.335Z,97214.86
2023-02-18T09:48:12.382Z,97201.08
2023-02-18T09:50:46.175Z,97203.23
2023-02-18T09:53:20.020Z,97194.20
2023-02-18T09:55:55.745Z,97190.02
2023-02-18T09:58:31.673Z,97188.34
2023-02-18T10:01:09.521Z,97181.13
2023-02-18T10:03:44.415Z,97182.76
2023-02-18T10:06:21.963Z,97182.56
2023-02-18T10:08:56.945Z,97175.14
2023-02-18T10:11:34.128Z,97174.23
2023-02-18T10:14:13.421Z,97173.17
2023-02-18T10:16:48.059Z,97166.77
2023-02-18T10:19:28.222Z,97170.83
2023-02-18T10:22:04.419Z,97166.79
2023-02-18T10:24:40.410Z,97163.41
2023-02-18T10:27:18.016Z,97160.59
2023-02-18T10:29:52.334Z,97163.77
2023-02-18T10:32:29.434Z,97159.34
2023-02-18T10:35:10.986Z,97159.00
2023-02-18T10:38:05.856Z,97150.05
2023-02-18T10:40:48.636Z,97144.24
2023-02-18T10:43:31.506Z,97139.33
2023-02-18T10:46:12.563Z,97139.25
2023-02-18T10:49:02.307Z,97135.37
2023-02-18T10:51:37.914Z,97128.59
2023-02-18T10:54:11.390Z,97124.52
2023-02-18T10:56:48.902Z,97121.52
2023-02-18T10:59:26.122Z,97121.10
2023-02-18T11:02:04.504Z,97118.77
2023-02-18T11:04:42.427Z,97110.91
2023-02-18T11:07:19.011Z,97110.42
2023-02-18T11:09:54.478Z,97111.27
2023-02-18T11:12:30.790Z,97109.73
2023-02-18T11:15:19.992Z,97108.81
2023-02-18T11:17:54.791Z,97109.67
2023-02-18T11:20:32.390Z,97113.90
2023-02-18T11:23:21.001Z,97110.31
2023-02-18T11:26:03.681Z,97107.34
2023-02-18T11:28:45.260Z,97107.80
2023-02-18T11:31:25.471Z,97102.04
2023-02-18T11:34:03.640Z,97103.75
2023-02-18T11:36:39.126Z,97105.71
2023-02-18T11:39:23.424Z,97102.46
2023-02-18T11:42:00.849Z,97100.97
2023-02-18T11:44:36.486Z,97100.16
2023-02-18T11:47:26.663Z,97099.11
2023-02-18T11:50:22.583Z,97099.27
2023-02-18T11:52:57.880Z,97098.36
2023-02-18T11:55:34.710Z,97093.36
2023-02-18T11:58:11.287Z,97091.41
2023-02-18T12:00:46.702Z,97090.50
2023-02-18T12:03:28.373Z,97090.97
2023-02-18T12:06:06.176Z,97095.20
2023-02-18T12:08:46.194Z,97092.25
2023-02-18T12:11:25.148Z,97087.38
2023-02-18T12:14:00.197Z,97091.05
2023-02-18T12:16:39.661Z,97091.65
2023-02-18T12:19:33.335Z,97085.05
2023-02-18T12:22:11.428Z,97087.97
2023-02-18T12:24:57.921Z,97085.43
2023-02-18T12:27:36.052Z,97090.88
2023-02-18T12:30:30.202Z,97090.73
2023-02-18T12:33:09.576Z,97087.73
2023-02-18T12:35:52.953Z,97084.39
2023-02-18T12:38:41.366Z,97084.36
2023-02-18T12:41:29.166Z,97088.60
2023-02-18T12:44:12.916Z,97088.45
2023-02-18T12:46:59.843Z,97090.98
2023-02-18T12:50:00.514Z,97085.89
2023-02-18T12:52:40.690Z,97085.29
2023-02-18T12:55:32.812Z,97091.36
2023-02-18T12:58:15.167Z,97097.48
2023-02-18T13:01:15.927Z,97095.39
2023-02-18T13:04:02.132Z,97097.55
2023-02-18T13:07:05.235Z,97102.07
2023-02-18T13:09:47.798Z,97105.34
2023-02-18T13:12:26.321Z,97105.42
2023-02-18T13:15:04.086Z,97107.37
2023-02-18T13:17:40.570Z,97103.30
2023-02-18T13:20:22.673Z,97107.99
2023-02-18T13:22:56.675Z,97109.34
2023-02-18T13:25:30.182Z,97110.51
2023-02-18T13:28:10.676Z,97113.52
2023-02-18T13:30:47.762Z,97110.97
2023-02-18T13:33:26.174Z,97112.39
2023-02-18T13:39:52.005Z,97100.95
2023-02-18T13:42:39.576Z,97099.04
2023-02-18T13:48:31.404Z,97100.32
2023-02-18T13:51:05.462Z,97097.78
2023-02-18T13:53:38.361Z,97102.55
2023-02-18T13:56:11.453Z,97100.23
2023-02-18T13:58:44.171Z,97096.29
2023-02-18T14:01:34.403Z,97094.33
2023-02-18T14:04:25.878Z,97096.44
2023-02-18T14:07:24.192Z,97100.33
2023-02-18T14:09:55.340Z,97102.66
2023-02-18T14:12:37.979Z,97105.34
2023-02-18T14:15:43.424Z,97103.38
2023-02-18T14:18:26.499Z,97100.48
2023-02-18T14:21:06.744Z,97102.83
2023-02-18T14:23:58.822Z,97100.02
2023-02-18T14:26:34.422Z,97102.94
2023-02-18T14:29:12.393Z,97104.75
2023-02-18T14:31:54.193Z,97104.85
2023-02-18T14:35:01.587Z,97109.65
2023-02-18T14:37:54.143Z,97112.77
2023-02-18T14:40:33.315Z,97113.98
2023-02-18T14:43:08.390Z,97113.63
2023-02-18T14:46:04.777Z,97116.92
2023-02-18T14:49:00.920Z,97115.38
2023-02-18T14:51:33.162Z,97118.20
2023-02-18T14:54:07.228Z,97115.10
2023-02-18T14:56:43.179Z,97112.94
2023-02-18T14:59:14.915Z,97112.89
2023-02-18T15:01:47.332Z,97114.70
2023-02-18T15:04:18.033Z,97118.48
2023-02-18T15:06:58.279Z,97121.37
2023-02-18T15:09:28.722Z,97120.64
2023-02-18T15:12:02.059Z,97125.91
2023-02-18T15:14:34.870Z,97122.89
2023-02-18T15:17:06.304Z,97123.52
2023-02-18T15:19:39.985Z,97126.45
2023-02-18T15:22:16.814Z,97128.81
2023-02-18T15:24:47.659Z,97132.05
2023-02-18T15:27:19.855Z,97139.17
2023-02-18T15:29:53.689Z,97145.55
2023-02-18T15:32:27.292Z,97149.80
2023-02-18T15:35:01.440Z,97154.76
2023-02-18T15:37:32.767Z,97156.89
2023-02-18T15:40:04.578Z,97155.64
2023-02-18T15:42:36.905Z,97158.30
2023-02-18T15:45:18.109Z,97159.64
2023-02-18T15:47:50.515Z,97155.05
2023-02-18T15:50:23.523Z,97161.31
2023-02-18T15:52:56.579Z,97166.20
2023-02-18T15:55:31.068Z,97164.95
2023-02-18T15:58:04.471Z,97163.35
2023-02-18T16:00:38.011Z,97164.05
2023-02-18T16:03:14.651Z,97168.95
2023-02-18T16:05:46.166Z,97169.98
2023-02-18T16:08:25.200Z,97174.73
2023-02-18T16:11:02.067Z,97174.44
2023-02-18T16:13:37.898Z,97171.80
2023-02-18T16:16:18.902Z,97173.79
2023-02-18T16:18:49.950Z,97169.88
2023-02-18T16:21:33.437Z,97164.50
2023-02-18T16:24:05.963Z,97163.71
2023-02-18T16:26:45.437Z,97160.11
2023-02-18T16:29:21.658Z,97151.77
2023-02-18T16:31:54.044Z,97150.33
2023-02-18T16:34:24.612Z,97149.30
2023-02-18T16:37:13.042Z,97152.82
2023-02-18T16:39:44.877Z,97155.38
2023-02-18T16:42:15.320Z,97157.36
2023-02-18T16:44:51.583Z,97148.85
2023-02-18T16:47:22.027Z,97146.33
2023-02-18T16:49:54.204Z,97147.02
2023-02-18T16:52:24.864Z,97149.44
2023-02-18T16:54:56.305Z,97148.48
2023-02-18T16:57:27.137Z,97147.59
2023-02-18T17:00:00.101Z,97146.14
2023-02-18T17:02:33.166Z,97142.73
2023-02-18T17:05:14.282Z,97146.44
2023-02-18T17:07:51.808Z,97150.81
2023-02-18T17:10:23.989Z,97153.55
2023-02-18T17:12:54.768Z,97154.91
2023-02-18T17:15:30.677Z,97150.57
2023-02-18T17:18:04.170Z,97146.02
2023-02-18T17:20:34.975Z,97142.05
2023-02-18T17:23:05.814Z,97147.27
2023-02-18T17:25:40.914Z,97147.66
2023-02-18T17:28:11.610Z,97144.18
2023-02-18T17:30:42.924Z,97139.81
2023-02-18T17:33:16.327Z,97141.29
2023-02-18T17:35:47.869Z,97134.14
2023-02-18T17:38:21.685Z,97136.50
2023-02-18T17:40:57.468Z,97143.88
2023-02-18T17:43:28.331Z,97143.60
2023-02-18T17:46:00.979Z,97135.45
2023-02-18T17:48:31.394Z,97130.80
2023-02-18T17:51:02.649Z,97131.77
2023-02-18T17:53:33.006Z,97129.63
2023-02-18T17:56:04.137Z,97131.10
2023-02-18T17:58:35.404Z,97131.11
2023-02-18T18:01:11.634Z,97121.02
2023-02-18T18:03:42.066Z,97120.07
2023-02-18T18:06:18.924Z,97122.10
2023-02-18T18:08:50.337Z,97118.16
2023-02-18T18:11:22.506Z,97121.84
2023-02-18T18:13:54.405Z,97124.27
2023-02-18T18:16:25.197Z,97122.22
2023-02-18T18:18:56.027Z,97115.30
2023-02-18T18:21:32.188Z,97113.27
2023-02-18T18:24:04.535Z,97101.06
2023-02-18T18:26:35.662Z,97099.98
2023-02-18T18:29:06.787Z,97099.34
2023-02-18T18:31:38.466Z,97101.17
2023-02-18T18:34:11.210Z,97099.72
2023-02-18T18:36:41.930Z,97096.45
2023-02-18T18:39:12.839Z,97093.28
2023-02-18T18:41:43.212Z,97097.58
2023-02-18T18:44:14.989Z,97103.83
2023-02-18T18:46:46.267Z,97095.60
2023-02-18T18:49:16.645Z,97096.86
2023-02-18T18:51:47.777Z,97092.36
2023-02-18T18:54:18.084Z,97088.55
2023-02-18T18:56:49.963Z,97091.08
2023-02-18T18:59:21.090Z,97089.13
2023-02-18T19:01:53.991Z,97084.84
2023-02-18T19:04:26.190Z,97084.75
2023-02-18T19:06:57.740Z,97085.21
2023-02-18T19:09:28.772Z,97085.81
2023-02-18T19:12:00.619Z,97082.34
2023-02-18T19:14:31.119Z,97073.62
2023-02-18T19:17:03.393Z,97073.86
2023-02-18T19:19:35.065Z,97074.52
2023-02-18T19:22:05.569Z,97069.08
2023-02-18T19:24:36.062Z,97066.03
2023-02-18T19:27:06.460Z,97068.11
2023-02-18T19:29:39.620Z,97067.27
2023-02-18T19:32:10.767Z,97061.38
2023-02-18T19:34:42.877Z,97065.88
2023-02-18T19:37:14.118Z,97064.37
2023-02-18T19:39:46.693Z,97064.36
2023-02-18T19:42:19.764Z,97061.01
2023-02-18T19:44:54.279Z,97059.30
2023-02-18T19:47:26.004Z,97055.61
2023-02-18T19:49:59.534Z,97052.45
2023-02-18T19:52:30.982Z,97052.90
2023-02-18T19:55:02.293Z,97053.67
2023-02-18T19:57:35.038Z,97052.20
2023-02-18T20:00:08.724Z,97050.60
2023-02-18T20:02:40.469Z,97054.04
2023-02-18T20:05:12.276Z,97052.84
2023-02-18T20:07:45.810Z,97044.23
2023-02-18T20:10:22.337Z,97042.23
2023-02-18T20:12:58.718Z,97041.18
2023-02-18T20:15:29.006Z,97038.48
2023-02-18T20:18:03.802Z,97041.23
2023-02-18T20:20:35.618Z,97040.10
2023-02-18T20:23:08.328Z,97033.06
2023-02-18T20:25:40.253Z,97022.73
2023-02-18T20:28:10.966Z,97020.24
2023-02-18T20:30:44.338Z,97023.00
2023-02-18T20:33:17.847Z,97023.98
2023-02-18T20:35:59.176Z,97019.80
2023-02-18T20:38:33.176Z,97011.19
2023-02-18T20:41:09.119Z,97007.95
2023-02-18T20:43:41.048Z,97015.05
2023-02-18T20:46:16.136Z,97014.57
2023-02-18T20:48:48.213Z,97014.99
2023-02-18T20:51:22.452Z,97009.11
2023-02-18T20:53:56.959Z,97007.52
2023-02-18T20:56:29.796Z,97012.74
2023-02-18T20:59:00.337Z,97010.67
2023-02-18T21:01:31.898Z,97009.10
2023-02-18T21:04:04.634Z,97012.80
2023-02-18T21:06:38.878Z,97011.23
2023-02-18T21:09:13.424Z,97012.80
2023-02-18T21:11:44.800Z,97008.21
2023-02-18T21:22:30.299Z,97011.06
2023-02-18T21:25:04.606Z,97003.98
2023-02-18T21:27:36.507Z,97001.09
2023-02-18T21:30:12.640Z,97000.01
2023-02-18T21:32:43.450Z,96994.27
2023-02-18T21:35:13.666Z,96992.99
2023-02-18T21:37:44.044Z,96993.35
2023-02-18T21:40:14.462Z,96997.80
2023-02-18T21:42:44.886Z,97000.35
2023-02-18T21:45:16.839Z,96993.97
2023-02-18T21:47:50.613Z,96997.23
2023-02-18T21:50:22.250Z,96992.16
2023-02-18T21:52:54.306Z,96995.20
2023-02-18T21:55:27.199Z,96993.17
2023-02-18T21:57:59.703Z,96991.73
2023-02-18T22:00:31.647Z,96992.83
2023-02-18T22:03:05.757Z,96992.52
2023-02-18T22:05:37.235Z,96999.39
2023-02-18T22:08:10.049Z,97002.29
2023-02-18T22:10:42.513Z,97003.05
2023-02-18T22:13:14.801Z,97006.15
2023-02-18T22:15:46.843Z,97008.21
2023-02-18T22:18:17.967Z,97006.20
2023-02-18T22:20:49.066Z,97003.52
2023-02-18T22:23:20.236Z,97002.08
2023-02-18T22:25:54.359Z,97000.73
2023-02-18T22:28:25.221Z,96996.21
2023-02-18T22:30:55.411Z,96994.09
2023-02-18T22:33:27.942Z,96996.11
2023-02-18T22:35:58.385Z,96992.20
2023-02-18T22:38:30.269Z,96990.16
2023-02-18T22:41:06.308Z,96983.39
2023-02-18T22:43:38.080Z,96980.65
2023-02-18T22:46:11.628Z,96983.29
2023-02-18T22:48:44.898Z,96986.54
2023-02-18T22:51:20.046Z,96985.77
2023-02-18T22:53:54.555Z,96975.38
2023-02-18T22:56:26.371Z,96971.34
2023-02-18T22:58:59.085Z,96967.92
2023-02-18T23:01:30.823Z,96970.55
2023-02-18T23:04:05.102Z,96967.67
2023-02-18T23:06:36.659Z,96961.25
2023-02-18T23:09:07.922Z,96958.30
2023-02-18T23:11:38.686Z,96958.35
2023-02-18T23:14:19.180Z,96957.31
2023-02-18T23:17:08.608Z,96958.12
2023-02-18T23:19:40.841Z,96957.87
2023-02-18T23:22:12.539Z,96949.23
2023-02-18T23:24:44.736Z,96944.56
2023-02-18T23:27:16.634Z,96940.34
2023-02-18T23:29:47.659Z,96933.77
2023-02-18T23:32:17.939Z,96930.79
2023-02-18T23:34:48.163Z,96925.80
2023-02-18T23:37:39.412Z,96917.51
2023-02-18T23:40:13.392Z,96919.80
2023-02-18T23:42:44.015Z,96913.29
2023-02-18T23:45:14.368Z,96909.33
2023-02-18T23:47:44.614Z,96910.80
2023-02-18T23:50:15.669Z,96904.70
2023-02-18T23:52:46.998Z,96906.88
2023-02-18T23:55:18.385Z,96903.20
2023-02-18T23:57:49.438Z,96903.27
